CCGS Amundsen — CGDT — position and weather

sailwx.info

Track history (hours):
 
Tides and Currents Weather Stations Pressure Air Temp Water Temp Dewpoint Dewpoint Depression Visibility Wind Speed Wind Dir Waves Ship Positions

Oceanographic research ship CCGS Amundsen (Canada)

Detailed information on ship capabilities available from ARCUS's ALIAS (Arctic Logistics Information and Support) project.

Last reported at 2018-Jul-19 18:00 UTC. Time now 2018-Jul-19 19:02 UTC.
Position N 67°30' W 063°48'.

Length 98.3 m; beam 19.5 m; draft 7.3 m.

Type: SAR. MMSI: 316050000.

Wind from 190 at 5 knots

Barometer 1006.6 mb
Air temperature 3.3 ° C
Dewpoint -0.7 ° C
Water temperature 1.7 ° C

Date/timePositionNaut miles runAvg speedWind from/ knotsBaromVisibWave heightAir tempDewpointWater temp
2018-Jul-19 18:00N 67°30' W 063°48'0 0.0 190 / 51006.6 3.3-0.7 1.7
2018-Jul-19 17:00N 67°30' W 063°48'0 0.0 170 / 61007.0 3.0-0.8 1.9
2018-Jul-19 16:00N 67°30' W 063°48'0 0.0 140 / 51007.6 2.7-0.5 1.6
2018-Jul-19 14:00N 67°30' W 063°48'0 0.0 310 / 21008.6 2.8-1.0 0.2
2018-Jul-19 13:00N 67°30' W 063°48'0 0.0 080 / 31009.5 2.5-1.4 0.2
2018-Jul-19 12:00N 67°30' W 063°48'0 0.0 350 / 11010.0 3.6-1.3 0.2
2018-Jul-19 11:00N 67°30' W 063°48'0 0.0 1010.5 4.5-1.3
2018-Jul-19 10:00N 67°30' W 063°48'2 2.3 350 / 31010.9 2.6-1.7-0.0
2018-Jul-19 09:00N 67°30' W 063°42'0 0.0 270 / 41011.5 2.2-1.6
2018-Jul-19 08:00N 67°30' W 063°42'0 0.0 030 / 21012.1 2.9-1.5
2018-Jul-19 07:00N 67°30' W 063°42'0 0.0 030 / 11012.6 3.1-1.1
2018-Jul-19 06:00N 67°30' W 063°42'0 0.0 340 / 21013.0 2.3-0.9-0.0
2018-Jul-19 05:00N 67°30' W 063°42'0 0.0 1013.3 1.9-1.2-0.0
2018-Jul-19 04:00N 67°30' W 063°42'2 2.3 010 / 21013.7 1.8-1.1-0.4
2018-Jul-19 03:00N 67°30' W 063°36'0 0.0 340 / 11014.2 1.9-0.5-0.4
2018-Jul-19 02:00N 67°30' W 063°36'7 6.9 360 / 21014.3 2.4-0.1-0.5
2018-Jul-19 01:00N 67°30' W 063°18'9 9.2 320 / 31014.5 0.9-0.2-0.5
2018-Jul-19 00:00N 67°30' W 062°54'9 9.2 310 / 91014.4 0.6 0.4 0.6
2018-Jul-18 23:00N 67°30' W 062°30'1312.8 330 / 81015.0 0.5 0.4 0.5
2018-Jul-18 22:00N 67°42' W 062°18'6 6.4 330 / 71014.9 0.3 0.2-0.2
2018-Jul-18 21:00N 67°48' W 062°12'2 2.3 350 / 81014.7 0.2 0.1-0.5
2018-Jul-18 20:00N 67°48' W 062°18'0 0.0 340 / 91014.6 0.3 0.2
2018-Jul-18 19:00N 67°48' W 062°18'0 0.0 330 / 101014.7 0.2 0.1-0.6
2018-Jul-18 18:00N 67°48' W 062°18'0 0.0 330 / 91014.5 0.3 0.2-0.6
2018-Jul-18 17:00N 67°48' W 062°18'0 0.0 310 / 61014.6 0.2 0.1-0.6
2018-Jul-18 16:00N 67°48' W 062°18'6 6.0 310 / 51014.5 0.9 0.6-0.6
2018-Jul-18 15:00N 67°54' W 062°18'0 0.0 310 / 91014.6 0.3 0.2-0.4
2018-Jul-18 14:00N 67°54' W 062°18'2 2.3 300 / 81017.0 -0.3-0.4-0.5
2018-Jul-18 13:00N 67°54' W 062°24'0 0.0 300 / 61014.5 -0.1-0.2
2018-Jul-18 12:00N 67°54' W 062°24'0 0.0 290 / 81015.7 -1.0-1.1-0.6
2018-Jul-18 11:00N 67°54' W 062°24'2 2.3 280 / 61016.1 0.1-0.0-0.6
2018-Jul-18 10:00N 67°54' W 062°30'2 2.3 270 / 71018.8 -1.2-1.3-0.6
2018-Jul-18 09:00N 67°54' W 062°36'0 0.0 290 / 61016.5 -1.7-1.7-0.5
2018-Jul-18 08:00N 67°54' W 062°36'0 0.0 310 / 51018.5 -1.7-1.8
2018-Jul-18 07:00N 67°54' W 062°36'0 0.0 310 / 41016.0 -1.8-1.8
2018-Jul-18 06:00N 67°54' W 062°36'0 0.0 300 / 21015.4 -1.9-1.9
2018-Jul-18 05:00N 67°54' W 062°36'0 0.0 340 / 11013.2 -2.0-2.0-0.5
2018-Jul-18 04:00N 67°54' W 062°36'0 0.0 350 / 11011.8 -2.2-2.3-0.4
2018-Jul-18 03:00N 67°54' W 062°36'0 0.0 310 / 31011.5 -2.3-2.3-0.5
2018-Jul-18 02:00N 67°54' W 062°36'0 0.0 320 / 31011.8 -1.9-1.9
2018-Jul-18 01:00N 67°54' W 062°36'2 2.3 330 / 81011.7 -1.8-1.8-0.5
2018-Jul-18 00:00N 67°54' W 062°42'5 4.5 340 / 31012.2 -1.3-1.3-0.5
2018-Jul-17 23:00N 67°54' W 062°30'9 9.0 330 / 151010.0 -1.5-1.5-0.3
2018-Jul-17 22:00N 67°54' W 062°06'7 6.8 330 / 171011.4 -1.2-1.3-0.3
2018-Jul-17 21:00N 67°54' W 061°48'5 4.5 330 / 181010.6 -1.2-1.3-0.4
2018-Jul-17 20:00N 67°54' W 061°36'0 0.0 330 / 171011.6 -1.0-1.1-0.3
2018-Jul-17 19:00N 67°54' W 061°36'2 2.3 330 / 161011.3 -0.9-0.9-0.3
2018-Jul-17 18:00N 67°54' W 061°30'0 0.0 330 / 171010.4 -0.9-1.0-0.4
2018-Jul-17 17:00N 67°54' W 061°30'0 0.0 340 / 201011.3 -0.7-0.8-0.4
2018-Jul-17 16:00N 67°54' W 061°30'6 6.0 340 / 201010.5 -0.6-0.6-0.5
2018-Jul-17 15:00N 68°00' W 061°30'0 0.0 330 / 171010.5 -0.7-0.7-0.5
2018-Jul-17 14:00N 68°00' W 061°30'0 0.0 340 / 181008.6 -0.5-0.5-0.5
2018-Jul-17 13:00N 68°00' W 061°30'0 0.0 330 / 181008.2 -0.3-0.4-0.5
2018-Jul-17 12:00N 68°00' W 061°30'6 6.0 320 / 151008.1 -0.4-0.4-0.6
2018-Jul-17 11:00N 68°06' W 061°30'0 0.0 320 / 151007.2 0.3 0.3-0.5
2018-Jul-17 10:00N 68°06' W 061°30'9 9.0 330 / 171004.8 -0.4-0.4-0.5
2018-Jul-17 09:00N 68°12' W 061°12'7 7.5 350 / 171005.0 -0.5-0.5-0.4
2018-Jul-17 08:00N 68°18' W 061°00'1312.8 360 / 181004.3 -0.4-0.4-0.3
2018-Jul-17 07:00N 68°30' W 060°48'6 6.0 350 / 151004.7 0.3 0.2-0.0
2018-Jul-17 06:00N 68°36' W 060°48'1818.1 010 / 161004.5 -0.5-0.5-0.1
2018-Jul-17 05:00N 68°54' W 060°42'1212.2 350 / 151004.4 -0.3-0.3-0.0
2018-Jul-17 04:00N 69°06' W 060°48'1212.2 010 / 151003.7 -0.6-0.6-0.2
2018-Jul-17 03:00N 69°18' W 060°42'0 0.0 330 / 91003.0 -0.8-0.9-0.4
2018-Jul-17 02:00N 69°18' W 060°42'0 0.0 340 / 71003.6 -0.6-0.6-0.4
2018-Jul-17 01:00N 69°18' W 060°42'6 6.4 360 / 121003.5 -0.6-0.7-0.4
2018-Jul-17 00:00N 69°12' W 060°36'1212.2 360 / 191003.7 -0.4-0.4-0.3
2018-Jul-16 23:00N 69°00' W 060°42'1212.2 010 / 221003.3 -0.4-0.4-0.0
2018-Jul-16 22:00N 68°48' W 060°36'1212.0 010 / 261001.3 -0.3-0.3 0.1
2018-Jul-16 21:00N 68°36' W 060°36'1212.2 010 / 251002.3 -0.3-0.3-0.2
2018-Jul-16 20:00N 68°24' W 060°30'6 6.0 010 / 221001.7 -0.4-0.4-0.3
2018-Jul-16 19:00N 68°18' W 060°30'0 0.0 010 / 201001.8 -0.2-0.2 0.1
2018-Jul-16 18:00N 68°18' W 060°30'0 0.0 010 / 191001.3 -0.1-0.2 0.1
2018-Jul-16 17:00N 68°18' W 060°30'2 2.2 010 / 161001.2 -0.1-0.1 0.2
2018-Jul-16 16:00N 68°18' W 060°24'0 0.0 360 / 141001.3 0.1 0.1 0.1
2018-Jul-16 15:00N 68°18' W 060°24'0 0.0 020 / 181000.8 0.3 0.2 0.1
2018-Jul-16 13:00N 68°18' W 060°24'0 0.0 020 / 131000.4 0.4 0.4 0.1
2018-Jul-16 12:00N 68°18' W 060°24'6 6.0 020 / 201000.9 0.4 0.3-0.0
2018-Jul-16 11:00N 68°24' W 060°24'2 2.2 020 / 191001.0 0.5 0.4-0.0
2018-Jul-16 10:00N 68°24' W 060°30'0 0.0 010 / 191000.6 0.2 0.1-0.2
2018-Jul-16 09:00N 68°24' W 060°30'0 0.0 030 / 161001.1 0.4 0.4-0.0
2018-Jul-16 08:00N 68°24' W 060°30'6 6.0 030 / 91000.9 0.7 0.7-0.1
2018-Jul-16 07:00N 68°30' W 060°30'9 8.9 020 / 181000.9 0.4 0.4-0.1
2018-Jul-16 06:00N 68°24' W 060°12'1313.3 040 / 131000.1 0.5 0.5 0.2
2018-Jul-16 05:00N 68°24' W 059°36'9 8.8 030 / 14999.5 0.4 0.3 0.3
2018-Jul-16 04:00N 68°24' W 059°12'1514.6 020 / 12999.8 0.9 0.8 1.6
2018-Jul-16 03:00N 68°18' W 058°36'1312.6 040 / 91000.2 1.5 1.4 1.9
2018-Jul-16 02:00N 68°12' W 058°06'1312.7 060 / 81000.4 2.4 2.3 2.6
2018-Jul-16 01:00N 68°06' W 057°36'1212.2 070 / 91000.3 3.5 3.4 2.6
2018-Jul-16 00:00N 67°54' W 057°30'1312.8 090 / 71000.4 3.6 3.6 2.7
2018-Jul-15 23:00N 67°42' W 057°18'1312.8 110 / 91000.8 3.8 3.7 3.4
2018-Jul-15 22:00N 67°30' W 057°06'1413.9 110 / 111000.8 4.0 3.9 3.7
2018-Jul-15 21:00N 67°18' W 056°48'1918.6 100 / 101001.2 4.3 4.2 3.4
2018-Jul-15 20:00N 67°00' W 056°36'1212.2 100 / 71003.2 5.0 5.0 4.1
2018-Jul-15 19:00N 66°48' W 056°30'2412.2 150 / 101003.3 4.8 4.8 4.0
2018-Jul-15 17:00N 66°24' W 056°42'1818.2 110 / 141003.3 4.4 4.4 3.9
2018-Jul-15 16:00N 66°06' W 056°48'1212.0 110 / 131003.7 4.6 4.5 3.6
2018-Jul-15 15:00N 65°54' W 056°48'1313.0 110 / 131002.3 4.3 4.2 2.0
2018-Jul-15 14:00N 65°42' W 057°00'10 9.5 120 / 141002.4 4.9 4.8 1.2
2018-Jul-15 13:00N 65°36' W 057°18'1414.1 130 / 151002.5 4.7 4.4 3.5
2018-Jul-15 12:00N 65°24' W 057°36'1918.7 130 / 161002.4 5.2 4.4 3.3
2018-Jul-15 11:00N 65°06' W 057°48'1414.2 120 / 151002.8 4.6 3.9 1.5
2018-Jul-15 10:00N 64°54' W 058°06'1212.3 110 / 161002.8 5.3 4.4 3.5
2018-Jul-15 09:00N 64°42' W 058°12'1615.8 110 / 161003.0 5.2 4.0 2.3
2018-Jul-15 08:00N 64°30' W 058°36'1313.1 120 / 161003.4 6.3 4.4 2.9
2018-Jul-15 07:00N 64°18' W 058°48'1615.9 100 / 161003.9 6.4 5.0 4.0
2018-Jul-15 06:00N 64°06' W 059°12'1616.0 110 / 161003.9 5.9 4.8 4.4
2018-Jul-15 05:00N 63°54' W 059°36'10 9.9 110 / 141004.7 5.8 4.7 3.9
2018-Jul-15 04:00N 63°48' W 059°54'1414.4 110 / 161004.5 5.3 4.3 3.2
2018-Jul-15 03:00N 63°36' W 060°12'2019.7 110 / 151004.9 5.4 4.6 3.8
2018-Jul-15 02:00N 63°18' W 060°30'1313.2 100 / 151005.1 5.9 4.8 4.2
2018-Jul-15 01:00N 63°06' W 060°42'1313.2 110 / 161005.3 5.9 4.6 4.4
2018-Jul-15 00:00N 62°54' W 060°54'1010.2 110 / 161005.2 5.7 4.4 4.2
2018-Jul-14 23:00N 62°48' W 061°12'1514.6 120 / 171005.5 5.8 4.4 3.8
2018-Jul-14 22:00N 62°36' W 061°30'1010.2 120 / 161006.1 5.9 4.1 2.3
2018-Jul-14 21:00N 62°30' W 061°48'1312.6 120 / 161006.3 5.4 3.5 1.6
2018-Jul-14 20:00N 62°24' W 062°12'1010.3 120 / 161006.7 4.3 2.8 1.3
2018-Jul-14 19:00N 62°18' W 062°30'1616.4 120 / 171006.9 4.6 3.1 1.5
2018-Jul-14 18:00N 62°06' W 062°54'1312.7 130 / 211006.7 4.9 3.3 1.5
2018-Jul-14 17:00N 62°00' W 063°18'1312.8 120 / 161007.1 5.0 3.3 2.4
2018-Jul-14 16:00N 61°54' W 063°42'1111.3 110 / 161007.4 4.3 3.1 1.4
2018-Jul-14 15:00N 61°54' W 064°06'6 5.7 140 / 141007.7 3.2 2.3-0.5
2018-Jul-14 14:00N 61°54' W 064°18'6 5.7 120 / 111008.2 2.8 2.0-0.6
2018-Jul-14 13:00N 61°54' W 064°30'8 8.5 140 / 121008.3 3.1 2.2-0.7
2018-Jul-14 12:00N 61°54' W 064°48'7 6.6 130 / 111008.8 3.2 2.3-0.7
2018-Jul-14 11:00N 62°00' W 064°54'6 6.0 150 / 121009.4 3.4 2.5-0.7
2018-Jul-14 10:00N 62°06' W 064°54'0 0.0 100 / 111010.1 2.3 1.3-0.5
2018-Jul-14 09:00N 62°06' W 064°54'6 5.6 070 / 111010.3 2.2 1.1 0.3
2018-Jul-14 08:00N 62°06' W 065°06'8 8.2 120 / 51011.1 5.0 3.8 0.8
2018-Jul-14 07:00N 62°12' W 065°18'1010.3 160 / 91011.5 4.1 4.0 1.9
2018-Jul-14 06:00N 62°18' W 065°36'1514.6 150 / 91011.5 5.4 5.0 1.2
2018-Jul-14 05:00N 62°30' W 065°54'1312.6 120 / 81011.5 3.3 2.2 3.9
2018-Jul-14 04:00N 62°36' W 066°18'1616.3 120 / 91011.6 4.3 2.7 3.5
2018-Jul-14 03:00N 62°48' W 066°42'1212.5 120 / 71011.2 4.0 2.3 3.2
2018-Jul-14 02:00N 62°54' W 067°06'1514.5 150 / 161011.0 6.5 4.9 2.4
2018-Jul-14 01:00N 63°06' W 067°24'1514.8 150 / 131010.8 6.1 4.2 1.9
2018-Jul-14 00:00N 63°12' W 067°54'1414.5 150 / 71011.0 5.6 3.0 0.8
2018-Jul-13 23:00N 63°24' W 068°12'1313.1 140 / 121010.7 6.1 3.4 3.3
2018-Jul-13 22:00N 63°36' W 068°24'7 6.6 120 / 191011.0 10.4 5.8 2.9
2018-Jul-13 21:00N 63°42' W 068°30'0 0.0 140 / 91012.2 12.0 6.9
2018-Jul-13 20:00N 63°42' W 068°30'0 0.0 150 / 151012.7 11.9 6.5
2018-Jul-13 19:00N 63°42' W 068°30'0 0.0 130 / 71013.4 10.8 5.3 1.8
2018-Jul-13 18:00N 63°42' W 068°30'0 0.0 170 / 21013.7 12.5 5.6 2.1
2018-Jul-13 17:00N 63°42' W 068°30'7 6.6 170 / 21013.9 11.3 5.3 2.5
2018-Jul-13 16:00N 63°36' W 068°24'1313.1 100 / 61014.0 7.6 3.4 2.5
2018-Jul-13 15:00N 63°24' W 068°12'1414.5 060 / 31014.1 7.1 3.2 1.8
2018-Jul-13 14:00N 63°12' W 067°54'1212.4 140 / 11014.4 4.2 1.7 0.8
2018-Jul-13 13:00N 63°06' W 067°30'1514.5 130 / 51014.5 5.7 2.1 1.7
2018-Jul-13 12:00N 62°54' W 067°12'1616.3 340 / 31014.7 6.4 2.7 2.4
2018-Jul-13 11:00N 62°42' W 066°48'1616.3 360 / 41014.8 5.9 2.4 1.5
2018-Jul-13 10:00N 62°30' W 066°24'1514.6 040 / 11014.9 5.0 2.0 1.5
2018-Jul-13 09:00N 62°18' W 066°06'1010.3 330 / 81015.0 4.9 2.2 0.9
2018-Jul-13 08:00N 62°12' W 065°48'1313.2 340 / 71015.7 5.6 3.6 0.2
2018-Jul-13 07:00N 62°00' W 065°36'8 8.2 200 / 201016.0 3.1 2.2 0.1
2018-Jul-13 06:00N 61°54' W 065°48'8 8.2 210 / 111017.0 3.2 2.3 0.2
2018-Jul-13 05:00N 61°48' W 066°00'1312.8 180 / 81017.3 0.8 0.3 0.4
2018-Jul-13 04:00N 61°42' W 066°24'1414.2 170 / 91017.1 1.5 0.8 0.7
2018-Jul-13 03:00N 61°42' W 066°54'1414.2 150 / 111016.7 2.1 1.1 1.0
2018-Jul-13 02:00N 61°42' W 067°24'1312.8 140 / 121016.6 2.2 0.7 2.3
2018-Jul-13 01:00N 61°48' W 067°48'1414.2 130 / 131016.2 2.8 1.5 2.4
2018-Jul-13 00:00N 61°48' W 068°18'1515.4 120 / 131015.7 3.0 1.9 3.4
2018-Jul-12 23:00N 61°54' W 068°48'1111.3 120 / 141015.5 4.1 2.7 3.1
2018-Jul-12 22:00N 61°54' W 069°12'1717.0 130 / 131015.6 5.6 3.7 3.4
2018-Jul-12 21:00N 61°54' W 069°48'1111.3 140 / 151015.4 5.7 3.6 3.1
2018-Jul-12 20:00N 61°54' W 070°12'1414.1 150 / 151015.3 7.1 4.1 3.7
2018-Jul-12 19:00N 61°54' W 070°42'0 0.0 150 / 141015.7 6.6 4.0 3.6
2018-Jul-12 18:00N 61°54' W 070°42'3 1.4 150 / 111015.7 5.9 3.5 3.6
2018-Jul-12 16:00N 61°54' W 070°48'0 0.0 150 / 131015.4 6.5 3.7 3.3
2018-Jul-12 15:00N 61°54' W 070°48'6 6.0 150 / 81015.3 7.5 4.7 3.3
2018-Jul-12 14:00N 62°00' W 070°48'1514.7 140 / 91014.9 4.5 2.1 3.1
2018-Jul-12 13:00N 62°12' W 071°06'1514.6 140 / 101014.5 4.8 2.5 2.5
2018-Jul-12 12:00N 62°24' W 071°24'1312.6 170 / 141014.1 4.7 2.6 3.7
2018-Jul-12 11:00N 62°30' W 071°48'1817.6 140 / 111013.8 3.7 2.0 3.4
2018-Jul-12 10:00N 62°36' W 072°24'1515.0 140 / 131013.7 4.1 2.2 2.7
2018-Jul-12 09:00N 62°42' W 072°54'1515.0 140 / 111013.9 3.9 2.2 3.2
2018-Jul-12 08:00N 62°48' W 073°24'1616.5 160 / 111013.8 3.7 2.0 3.0
2018-Jul-12 07:00N 62°48' W 074°00'1413.7 150 / 81013.8 2.8 0.7 0.9
2018-Jul-12 06:00N 62°48' W 074°30'1312.5 160 / 71013.6 8.2 4.5 0.6
2018-Jul-12 05:00N 62°42' W 074°54'1212.3 150 / 71013.6 3.9 1.5 1.2
2018-Jul-12 04:00N 62°30' W 075°00'1312.6 200 / 21013.4 4.6 2.5 2.7
2018-Jul-12 03:00N 62°24' W 075°24'7 6.6 140 / 31013.3 3.7 2.5 2.6
2018-Jul-12 02:00N 62°18' W 075°30'0 0.0 300 / 21013.2 3.6 2.3
2018-Jul-12 01:00N 62°18' W 075°30'6 6.0 280 / 51012.9 4.2 2.9 2.0
2018-Jul-12 00:00N 62°24' W 075°30'6 6.0 070 / 71013.0 4.7 3.3 1.3
2018-Jul-11 23:00N 62°18' W 075°30'0 0.0 020 / 51013.2 6.0 3.8
2018-Jul-11 22:00N 62°18' W 075°30'15 7.6 300 / 61013.3 4.3 3.1 1.2
2018-Jul-11 20:00N 62°24' W 076°00'1312.6 260 / 21013.6 4.6 2.8 0.8
2018-Jul-11 19:00N 62°30' W 076°24'1312.6 010 / 61013.2 3.1 2.1 2.0
2018-Jul-11 18:00N 62°36' W 076°48'8 8.3 290 / 51013.5 3.0 1.5 0.2
2018-Jul-11 17:00N 62°36' W 077°06'1010.2 290 / 61013.3 2.9 1.6 0.6
2018-Jul-11 16:00N 62°42' W 077°24'1413.8 080 / 21012.6 2.4 1.7 1.5
2018-Jul-11 15:00N 62°42' W 077°54'8 8.3 110 / 31012.5 1.9 1.8 1.4
2018-Jul-11 14:00N 62°42' W 078°12'1312.6 200 / 81012.2 1.2 1.1 1.3
2018-Jul-11 13:00N 62°36' W 078°36'1514.6 170 / 81012.0 0.9 0.6 1.0
2018-Jul-11 12:00N 62°24' W 078°54'1514.6 130 / 91011.5 0.4 0.2 0.9
2018-Jul-11 11:00N 62°12' W 079°12'7 6.6 190 / 71011.3 0.4 0.2-0.0
2018-Jul-11 10:00N 62°06' W 079°06'7 6.6 180 / 71011.1 0.8 0.5-0.3
2018-Jul-11 09:00N 62°00' W 079°12'7 6.6 150 / 61011.0 0.4 0.2-0.3
2018-Jul-11 08:00N 61°54' W 079°18'1212.3 160 / 81010.7 0.5 0.4-0.2
2018-Jul-11 07:00N 61°42' W 079°24'7 6.6 230 / 81010.4 1.1 0.9-0.2
2018-Jul-11 06:00N 61°36' W 079°30'7 6.6 210 / 91010.6 1.0 0.9 0.7
2018-Jul-11 05:00N 61°30' W 079°36'8 8.3 210 / 91010.7 1.7 1.0-0.6
2018-Jul-11 04:00N 61°24' W 079°48'6 6.0 210 / 101010.9 0.9 0.8-0.4
2018-Jul-11 03:00N 61°18' W 079°48'1212.0 210 / 91010.9 1.2 1.0-0.1
2018-Jul-11 02:00N 61°06' W 079°48'1212.0 220 / 111011.4 2.0 1.3-0.1
2018-Jul-11 01:00N 60°54' W 079°48'0 0.0 220 / 101012.0 2.5 1.6-0.1
2018-Jul-11 00:00N 60°54' W 079°48'7 6.7 250 / 101012.3 2.3 1.6 0.2
2018-Jul-10 23:00N 60°48' W 079°42'7 6.7 280 / 111012.4 2.8 2.0-0.0
2018-Jul-10 22:00N 60°42' W 079°36'7 6.7 290 / 41012.4 2.4 1.7 0.1
2018-Jul-10 21:00N 60°36' W 079°30'6 6.0 320 / 71012.2 2.1 1.6 0.1
2018-Jul-10 20:00N 60°30' W 079°30'7 6.7 330 / 91011.7 2.4 1.8 0.2
2018-Jul-10 19:00N 60°24' W 079°24'0 0.0 320 / 121011.5 2.2 1.6-0.5
2018-Jul-10 18:00N 60°24' W 079°24'7 6.7 330 / 121010.9 2.1 1.7-0.0
2018-Jul-10 17:00N 60°18' W 079°18'6 6.0 320 / 121010.2 1.8 1.5-0.0
2018-Jul-10 16:00N 60°12' W 079°18'6 6.0 310 / 141009.7 1.7 1.6 0.1
2018-Jul-10 15:00N 60°06' W 079°18'6 6.0 280 / 141011.7 0.4 0.3-0.1
2018-Jul-10 14:00N 60°00' W 079°18'6 6.0 290 / 141011.2 0.2 0.1-0.1
2018-Jul-10 13:00N 59°54' W 079°18'6 6.0 310 / 121010.4 0.3 0.2-0.0
2018-Jul-10 12:00N 59°48' W 079°18'6 6.0 340 / 121009.4 0.5 0.4-0.1
2018-Jul-10 11:00N 59°42' W 079°18'0 0.0 320 / 141008.8 1.1 1.0-0.2
2018-Jul-10 10:00N 59°42' W 079°18'7 6.7 310 / 121008.2 1.2 1.1-0.0
2018-Jul-10 09:00N 59°36' W 079°24'6 6.0 300 / 101007.1 0.5 0.4 0.1
2018-Jul-10 08:00N 59°30' W 079°24'6 6.0 280 / 121007.0 0.5 0.4-0.0
2018-Jul-10 07:00N 59°24' W 079°24'7 6.7 270 / 131007.0 0.6 0.5-0.2
2018-Jul-10 06:00N 59°18' W 079°18'6 6.0 260 / 131006.9 0.5 0.4-0.2
2018-Jul-10 05:00N 59°12' W 079°18'0 0.0 270 / 111006.8 0.5 0.4-0.2
2018-Jul-10 04:00N 59°12' W 079°18'0 0.0 280 / 91007.0 0.7 0.6-0.3
2018-Jul-10 03:00N 59°12' W 079°18'3 3.1 270 / 101006.6 0.8 0.7-0.3
2018-Jul-10 02:00N 59°12' W 079°12'0 0.0 270 / 111006.8 0.8 0.7-0.5
2018-Jul-10 01:00N 59°12' W 079°12'0 0.0 280 / 101006.7 1.6 1.0-0.4
2018-Jul-10 00:00N 59°12' W 079°12'0 0.0 260 / 91006.5 1.5 0.9-0.4
2018-Jul-09 23:00N 59°12' W 079°12'0 0.0 260 / 101005.5 1.5 0.7-0.2
2018-Jul-09 22:00N 59°12' W 079°12'7 6.7 240 / 81005.4 1.1 0.7 0.1
2018-Jul-09 21:00N 59°06' W 079°06'7 6.7 240 / 101005.3 0.7 0.5 0.3
2018-Jul-09 20:00N 59°00' W 079°12'6 6.0 250 / 81004.5 0.5 0.4 0.3
2018-Jul-09 19:00N 58°54' W 079°12'6 6.0 250 / 81003.9 -0.0-0.1 0.9
2018-Jul-09 18:00N 58°48' W 079°12'   260 / 51003.1 0.5 0.3 1.0
Track history (hours):
 
Tides and Currents Weather Stations Pressure Air Temp Water Temp Dewpoint Dewpoint Depression Visibility Wind Speed Wind Dir Waves Ship Positions

Oceanographic research ship CCGS Amundsen (Canada)

Detailed information on ship capabilities available from ARCUS's ALIAS (Arctic Logistics Information and Support) project.

Last reported at 2018-Jul-19 18:00 UTC. Time now 2018-Jul-19 19:02 UTC.
Position N 67°30' W 063°48'.

Length 98.3 m; beam 19.5 m; draft 7.3 m.

Type: SAR. MMSI: 316050000.

Wind from 190 at 5 knots

Barometer 1006.6 mb
Air temperature 3.3 ° C
Dewpoint -0.7 ° C
Water temperature 1.7 ° C

Date/timePositionNaut miles runAvg speedWind from/ knotsBaromVisibWave heightAir tempDewpointWater temp
2018-Jul-19 18:00N 67°30' W 063°48'0 0.0 190 / 51006.6 3.3-0.7 1.7
2018-Jul-19 17:00N 67°30' W 063°48'0 0.0 170 / 61007.0 3.0-0.8 1.9
2018-Jul-19 16:00N 67°30' W 063°48'0 0.0 140 / 51007.6 2.7-0.5 1.6
2018-Jul-19 14:00N 67°30' W 063°48'0 0.0 310 / 21008.6 2.8-1.0 0.2
2018-Jul-19 13:00N 67°30' W 063°48'0 0.0 080 / 31009.5 2.5-1.4 0.2
2018-Jul-19 12:00N 67°30' W 063°48'0 0.0 350 / 11010.0 3.6-1.3 0.2
2018-Jul-19 11:00N 67°30' W 063°48'0 0.0 1010.5 4.5-1.3
2018-Jul-19 10:00N 67°30' W 063°48'2 2.3 350 / 31010.9 2.6-1.7-0.0
2018-Jul-19 09:00N 67°30' W 063°42'0 0.0 270 / 41011.5 2.2-1.6
2018-Jul-19 08:00N 67°30' W 063°42'0 0.0 030 / 21012.1 2.9-1.5
2018-Jul-19 07:00N 67°30' W 063°42'0 0.0 030 / 11012.6 3.1-1.1
2018-Jul-19 06:00N 67°30' W 063°42'0 0.0 340 / 21013.0 2.3-0.9-0.0
2018-Jul-19 05:00N 67°30' W 063°42'0 0.0 1013.3 1.9-1.2-0.0
2018-Jul-19 04:00N 67°30' W 063°42'2 2.3 010 / 21013.7 1.8-1.1-0.4
2018-Jul-19 03:00N 67°30' W 063°36'0 0.0 340 / 11014.2 1.9-0.5-0.4
2018-Jul-19 02:00N 67°30' W 063°36'7 6.9 360 / 21014.3 2.4-0.1-0.5
2018-Jul-19 01:00N 67°30' W 063°18'9 9.2 320 / 31014.5 0.9-0.2-0.5
2018-Jul-19 00:00N 67°30' W 062°54'9 9.2 310 / 91014.4 0.6 0.4 0.6
2018-Jul-18 23:00N 67°30' W 062°30'1312.8 330 / 81015.0 0.5 0.4 0.5
2018-Jul-18 22:00N 67°42' W 062°18'6 6.4 330 / 71014.9 0.3 0.2-0.2
2018-Jul-18 21:00N 67°48' W 062°12'2 2.3 350 / 81014.7 0.2 0.1-0.5
2018-Jul-18 20:00N 67°48' W 062°18'0 0.0 340 / 91014.6 0.3 0.2
2018-Jul-18 19:00N 67°48' W 062°18'0 0.0 330 / 101014.7 0.2 0.1-0.6
2018-Jul-18 18:00N 67°48' W 062°18'0 0.0 330 / 91014.5 0.3 0.2-0.6
2018-Jul-18 17:00N 67°48' W 062°18'0 0.0 310 / 61014.6 0.2 0.1-0.6
2018-Jul-18 16:00N 67°48' W 062°18'6 6.0 310 / 51014.5 0.9 0.6-0.6
2018-Jul-18 15:00N 67°54' W 062°18'0 0.0 310 / 91014.6 0.3 0.2-0.4
2018-Jul-18 14:00N 67°54' W 062°18'2 2.3 300 / 81017.0 -0.3-0.4-0.5
2018-Jul-18 13:00N 67°54' W 062°24'0 0.0 300 / 61014.5 -0.1-0.2
2018-Jul-18 12:00N 67°54' W 062°24'0 0.0 290 / 81015.7 -1.0-1.1-0.6
2018-Jul-18 11:00N 67°54' W 062°24'2 2.3 280 / 61016.1 0.1-0.0-0.6
2018-Jul-18 10:00N 67°54' W 062°30'2 2.3 270 / 71018.8 -1.2-1.3-0.6
2018-Jul-18 09:00N 67°54' W 062°36'0 0.0 290 / 61016.5 -1.7-1.7-0.5
2018-Jul-18 08:00N 67°54' W 062°36'0 0.0 310 / 51018.5 -1.7-1.8
2018-Jul-18 07:00N 67°54' W 062°36'0 0.0 310 / 41016.0 -1.8-1.8
2018-Jul-18 06:00N 67°54' W 062°36'0 0.0 300 / 21015.4 -1.9-1.9
2018-Jul-18 05:00N 67°54' W 062°36'0 0.0 340 / 11013.2 -2.0-2.0-0.5
2018-Jul-18 04:00N 67°54' W 062°36'0 0.0 350 / 11011.8 -2.2-2.3-0.4
2018-Jul-18 03:00N 67°54' W 062°36'0 0.0 310 / 31011.5 -2.3-2.3-0.5
2018-Jul-18 02:00N 67°54' W 062°36'0 0.0 320 / 31011.8 -1.9-1.9
2018-Jul-18 01:00N 67°54' W 062°36'2 2.3 330 / 81011.7 -1.8-1.8-0.5
2018-Jul-18 00:00N 67°54' W 062°42'5 4.5 340 / 31012.2 -1.3-1.3-0.5
2018-Jul-17 23:00N 67°54' W 062°30'9 9.0 330 / 151010.0 -1.5-1.5-0.3
2018-Jul-17 22:00N 67°54' W 062°06'7 6.8 330 / 171011.4 -1.2-1.3-0.3
2018-Jul-17 21:00N 67°54' W 061°48'5 4.5 330 / 181010.6 -1.2-1.3-0.4
2018-Jul-17 20:00N 67°54' W 061°36'0 0.0 330 / 171011.6 -1.0-1.1-0.3
2018-Jul-17 19:00N 67°54' W 061°36'2 2.3 330 / 161011.3 -0.9-0.9-0.3
2018-Jul-17 18:00N 67°54' W 061°30'0 0.0 330 / 171010.4 -0.9-1.0-0.4
2018-Jul-17 17:00N 67°54' W 061°30'0 0.0 340 / 201011.3 -0.7-0.8-0.4
2018-Jul-17 16:00N 67°54' W 061°30'6 6.0 340 / 201010.5 -0.6-0.6-0.5
2018-Jul-17 15:00N 68°00' W 061°30'0 0.0 330 / 171010.5 -0.7-0.7-0.5
2018-Jul-17 14:00N 68°00' W 061°30'0 0.0 340 / 181008.6 -0.5-0.5-0.5
2018-Jul-17 13:00N 68°00' W 061°30'0 0.0 330 / 181008.2 -0.3-0.4-0.5
2018-Jul-17 12:00N 68°00' W 061°30'6 6.0 320 / 151008.1 -0.4-0.4-0.6
2018-Jul-17 11:00N 68°06' W 061°30'0 0.0 320 / 151007.2 0.3 0.3-0.5
2018-Jul-17 10:00N 68°06' W 061°30'9 9.0 330 / 171004.8 -0.4-0.4-0.5
2018-Jul-17 09:00N 68°12' W 061°12'7 7.5 350 / 171005.0 -0.5-0.5-0.4
2018-Jul-17 08:00N 68°18' W 061°00'1312.8 360 / 181004.3 -0.4-0.4-0.3
2018-Jul-17 07:00N 68°30' W 060°48'6 6.0 350 / 151004.7 0.3 0.2-0.0
2018-Jul-17 06:00N 68°36' W 060°48'1818.1 010 / 161004.5 -0.5-0.5-0.1
2018-Jul-17 05:00N 68°54' W 060°42'1212.2 350 / 151004.4 -0.3-0.3-0.0
2018-Jul-17 04:00N 69°06' W 060°48'1212.2 010 / 151003.7 -0.6-0.6-0.2
2018-Jul-17 03:00N 69°18' W 060°42'0 0.0 330 / 91003.0 -0.8-0.9-0.4
2018-Jul-17 02:00N 69°18' W 060°42'0 0.0 340 / 71003.6 -0.6-0.6-0.4
2018-Jul-17 01:00N 69°18' W 060°42'6 6.4 360 / 121003.5 -0.6-0.7-0.4
2018-Jul-17 00:00N 69°12' W 060°36'1212.2 360 / 191003.7 -0.4-0.4-0.3
2018-Jul-16 23:00N 69°00' W 060°42'1212.2 010 / 221003.3 -0.4-0.4-0.0
2018-Jul-16 22:00N 68°48' W 060°36'1212.0 010 / 261001.3 -0.3-0.3 0.1
2018-Jul-16 21:00N 68°36' W 060°36'1212.2 010 / 251002.3 -0.3-0.3-0.2
2018-Jul-16 20:00N 68°24' W 060°30'6 6.0 010 / 221001.7 -0.4-0.4-0.3
2018-Jul-16 19:00N 68°18' W 060°30'0 0.0 010 / 201001.8 -0.2-0.2 0.1
2018-Jul-16 18:00N 68°18' W 060°30'0 0.0 010 / 191001.3 -0.1-0.2 0.1
2018-Jul-16 17:00N 68°18' W 060°30'2 2.2 010 / 161001.2 -0.1-0.1 0.2
2018-Jul-16 16:00N 68°18' W 060°24'0 0.0 360 / 141001.3 0.1 0.1 0.1
2018-Jul-16 15:00N 68°18' W 060°24'0 0.0 020 / 181000.8 0.3 0.2 0.1
2018-Jul-16 13:00N 68°18' W 060°24'0 0.0 020 / 131000.4 0.4 0.4 0.1
2018-Jul-16 12:00N 68°18' W 060°24'6 6.0 020 / 201000.9 0.4 0.3-0.0
2018-Jul-16 11:00N 68°24' W 060°24'2 2.2 020 / 191001.0 0.5 0.4-0.0
2018-Jul-16 10:00N 68°24' W 060°30'0 0.0 010 / 191000.6 0.2 0.1-0.2
2018-Jul-16 09:00N 68°24' W 060°30'0 0.0 030 / 161001.1 0.4 0.4-0.0
2018-Jul-16 08:00N 68°24' W 060°30'6 6.0 030 / 91000.9 0.7 0.7-0.1
2018-Jul-16 07:00N 68°30' W 060°30'9 8.9 020 / 181000.9 0.4 0.4-0.1
2018-Jul-16 06:00N 68°24' W 060°12'1313.3 040 / 131000.1 0.5 0.5 0.2
2018-Jul-16 05:00N 68°24' W 059°36'9 8.8 030 / 14999.5 0.4 0.3 0.3
2018-Jul-16 04:00N 68°24' W 059°12'1514.6 020 / 12999.8 0.9 0.8 1.6
2018-Jul-16 03:00N 68°18' W 058°36'1312.6 040 / 91000.2 1.5 1.4 1.9
2018-Jul-16 02:00N 68°12' W 058°06'1312.7 060 / 81000.4 2.4 2.3 2.6
2018-Jul-16 01:00N 68°06' W 057°36'1212.2 070 / 91000.3 3.5 3.4 2.6
2018-Jul-16 00:00N 67°54' W 057°30'1312.8 090 / 71000.4 3.6 3.6 2.7
2018-Jul-15 23:00N 67°42' W 057°18'1312.8 110 / 91000.8 3.8 3.7 3.4
2018-Jul-15 22:00N 67°30' W 057°06'1413.9 110 / 111000.8 4.0 3.9 3.7
2018-Jul-15 21:00N 67°18' W 056°48'1918.6 100 / 101001.2 4.3 4.2 3.4
2018-Jul-15 20:00N 67°00' W 056°36'1212.2 100 / 71003.2 5.0 5.0 4.1
2018-Jul-15 19:00N 66°48' W 056°30'2412.2 150 / 101003.3 4.8 4.8 4.0
2018-Jul-15 17:00N 66°24' W 056°42'1818.2 110 / 141003.3 4.4 4.4 3.9
2018-Jul-15 16:00N 66°06' W 056°48'1212.0 110 / 131003.7 4.6 4.5 3.6
2018-Jul-15 15:00N 65°54' W 056°48'1313.0 110 / 131002.3 4.3 4.2 2.0
2018-Jul-15 14:00N 65°42' W 057°00'10 9.5 120 / 141002.4 4.9 4.8 1.2
2018-Jul-15 13:00N 65°36' W 057°18'1414.1 130 / 151002.5 4.7 4.4 3.5
2018-Jul-15 12:00N 65°24' W 057°36'1918.7 130 / 161002.4 5.2 4.4 3.3
2018-Jul-15 11:00N 65°06' W 057°48'1414.2 120 / 151002.8 4.6 3.9 1.5
2018-Jul-15 10:00N 64°54' W 058°06'1212.3 110 / 161002.8 5.3 4.4 3.5
2018-Jul-15 09:00N 64°42' W 058°12'1615.8 110 / 161003.0 5.2 4.0 2.3
2018-Jul-15 08:00N 64°30' W 058°36'1313.1 120 / 161003.4 6.3 4.4 2.9
2018-Jul-15 07:00N 64°18' W 058°48'1615.9 100 / 161003.9 6.4 5.0 4.0
2018-Jul-15 06:00N 64°06' W 059°12'1616.0 110 / 161003.9 5.9 4.8 4.4
2018-Jul-15 05:00N 63°54' W 059°36'10 9.9 110 / 141004.7 5.8 4.7 3.9
2018-Jul-15 04:00N 63°48' W 059°54'1414.4 110 / 161004.5 5.3 4.3 3.2
2018-Jul-15 03:00N 63°36' W 060°12'2019.7 110 / 151004.9 5.4 4.6 3.8
2018-Jul-15 02:00N 63°18' W 060°30'1313.2 100 / 151005.1 5.9 4.8 4.2
2018-Jul-15 01:00N 63°06' W 060°42'1313.2 110 / 161005.3 5.9 4.6 4.4
2018-Jul-15 00:00N 62°54' W 060°54'1010.2 110 / 161005.2 5.7 4.4 4.2
2018-Jul-14 23:00N 62°48' W 061°12'1514.6 120 / 171005.5 5.8 4.4 3.8
2018-Jul-14 22:00N 62°36' W 061°30'1010.2 120 / 161006.1 5.9 4.1 2.3
2018-Jul-14 21:00N 62°30' W 061°48'1312.6 120 / 161006.3 5.4 3.5 1.6
2018-Jul-14 20:00N 62°24' W 062°12'1010.3 120 / 161006.7 4.3 2.8 1.3
2018-Jul-14 19:00N 62°18' W 062°30'1616.4 120 / 171006.9 4.6 3.1 1.5
2018-Jul-14 18:00N 62°06' W 062°54'1312.7 130 / 211006.7 4.9 3.3 1.5
2018-Jul-14 17:00N 62°00' W 063°18'1312.8 120 / 161007.1 5.0 3.3 2.4
2018-Jul-14 16:00N 61°54' W 063°42'1111.3 110 / 161007.4 4.3 3.1 1.4
2018-Jul-14 15:00N 61°54' W 064°06'6 5.7 140 / 141007.7 3.2 2.3-0.5
2018-Jul-14 14:00N 61°54' W 064°18'6 5.7 120 / 111008.2 2.8 2.0-0.6
2018-Jul-14 13:00N 61°54' W 064°30'8 8.5 140 / 121008.3 3.1 2.2-0.7
2018-Jul-14 12:00N 61°54' W 064°48'7 6.6 130 / 111008.8 3.2 2.3-0.7
2018-Jul-14 11:00N 62°00' W 064°54'6 6.0 150 / 121009.4 3.4 2.5-0.7
2018-Jul-14 10:00N 62°06' W 064°54'0 0.0 100 / 111010.1 2.3 1.3-0.5
2018-Jul-14 09:00N 62°06' W 064°54'6 5.6 070 / 111010.3 2.2 1.1 0.3
2018-Jul-14 08:00N 62°06' W 065°06'8 8.2 120 / 51011.1 5.0 3.8 0.8
2018-Jul-14 07:00N 62°12' W 065°18'1010.3 160 / 91011.5 4.1 4.0 1.9
2018-Jul-14 06:00N 62°18' W 065°36'1514.6 150 / 91011.5 5.4 5.0 1.2
2018-Jul-14 05:00N 62°30' W 065°54'1312.6 120 / 81011.5 3.3 2.2 3.9
2018-Jul-14 04:00N 62°36' W 066°18'1616.3 120 / 91011.6 4.3 2.7 3.5
2018-Jul-14 03:00N 62°48' W 066°42'1212.5 120 / 71011.2 4.0 2.3 3.2
2018-Jul-14 02:00N 62°54' W 067°06'1514.5 150 / 161011.0 6.5 4.9 2.4
2018-Jul-14 01:00N 63°06' W 067°24'1514.8 150 / 131010.8 6.1 4.2 1.9
2018-Jul-14 00:00N 63°12' W 067°54'1414.5 150 / 71011.0 5.6 3.0 0.8
2018-Jul-13 23:00N 63°24' W 068°12'1313.1 140 / 121010.7 6.1 3.4 3.3
2018-Jul-13 22:00N 63°36' W 068°24'7 6.6 120 / 191011.0 10.4 5.8 2.9
2018-Jul-13 21:00N 63°42' W 068°30'0 0.0 140 / 91012.2 12.0 6.9
2018-Jul-13 20:00N 63°42' W 068°30'0 0.0 150 / 151012.7 11.9 6.5
2018-Jul-13 19:00N 63°42' W 068°30'0 0.0 130 / 71013.4 10.8 5.3 1.8
2018-Jul-13 18:00N 63°42' W 068°30'0 0.0 170 / 21013.7 12.5 5.6 2.1
2018-Jul-13 17:00N 63°42' W 068°30'7 6.6 170 / 21013.9 11.3 5.3 2.5
2018-Jul-13 16:00N 63°36' W 068°24'1313.1 100 / 61014.0 7.6 3.4 2.5
2018-Jul-13 15:00N 63°24' W 068°12'1414.5 060 / 31014.1 7.1 3.2 1.8
2018-Jul-13 14:00N 63°12' W 067°54'1212.4 140 / 11014.4 4.2 1.7 0.8
2018-Jul-13 13:00N 63°06' W 067°30'1514.5 130 / 51014.5 5.7 2.1 1.7
2018-Jul-13 12:00N 62°54' W 067°12'1616.3 340 / 31014.7 6.4 2.7 2.4
2018-Jul-13 11:00N 62°42' W 066°48'1616.3 360 / 41014.8 5.9 2.4 1.5
2018-Jul-13 10:00N 62°30' W 066°24'1514.6 040 / 11014.9 5.0 2.0 1.5
2018-Jul-13 09:00N 62°18' W 066°06'1010.3 330 / 81015.0 4.9 2.2 0.9
2018-Jul-13 08:00N 62°12' W 065°48'1313.2 340 / 71015.7 5.6 3.6 0.2
2018-Jul-13 07:00N 62°00' W 065°36'8 8.2 200 / 201016.0 3.1 2.2 0.1
2018-Jul-13 06:00N 61°54' W 065°48'8 8.2 210 / 111017.0 3.2 2.3 0.2
2018-Jul-13 05:00N 61°48' W 066°00'1312.8 180 / 81017.3 0.8 0.3 0.4
2018-Jul-13 04:00N 61°42' W 066°24'1414.2 170 / 91017.1 1.5 0.8 0.7
2018-Jul-13 03:00N 61°42' W 066°54'1414.2 150 / 111016.7 2.1 1.1 1.0
2018-Jul-13 02:00N 61°42' W 067°24'1312.8 140 / 121016.6 2.2 0.7 2.3
2018-Jul-13 01:00N 61°48' W 067°48'1414.2 130 / 131016.2 2.8 1.5 2.4
2018-Jul-13 00:00N 61°48' W 068°18'1515.4 120 / 131015.7 3.0 1.9 3.4
2018-Jul-12 23:00N 61°54' W 068°48'1111.3 120 / 141015.5 4.1 2.7 3.1
2018-Jul-12 22:00N 61°54' W 069°12'1717.0 130 / 131015.6 5.6 3.7 3.4
2018-Jul-12 21:00N 61°54' W 069°48'1111.3 140 / 151015.4 5.7 3.6 3.1
2018-Jul-12 20:00N 61°54' W 070°12'1414.1 150 / 151015.3 7.1 4.1 3.7
2018-Jul-12 19:00N 61°54' W 070°42'0 0.0 150 / 141015.7 6.6 4.0 3.6
2018-Jul-12 18:00N 61°54' W 070°42'3 1.4 150 / 111015.7 5.9 3.5 3.6
2018-Jul-12 16:00N 61°54' W 070°48'0 0.0 150 / 131015.4 6.5 3.7 3.3
2018-Jul-12 15:00N 61°54' W 070°48'6 6.0 150 / 81015.3 7.5 4.7 3.3
2018-Jul-12 14:00N 62°00' W 070°48'1514.7 140 / 91014.9 4.5 2.1 3.1
2018-Jul-12 13:00N 62°12' W 071°06'1514.6 140 / 101014.5 4.8 2.5 2.5
2018-Jul-12 12:00N 62°24' W 071°24'1312.6 170 / 141014.1 4.7 2.6 3.7
2018-Jul-12 11:00N 62°30' W 071°48'1817.6 140 / 111013.8 3.7 2.0 3.4
2018-Jul-12 10:00N 62°36' W 072°24'1515.0 140 / 131013.7 4.1 2.2 2.7
2018-Jul-12 09:00N 62°42' W 072°54'1515.0 140 / 111013.9 3.9 2.2 3.2
2018-Jul-12 08:00N 62°48' W 073°24'1616.5 160 / 111013.8 3.7 2.0 3.0
2018-Jul-12 07:00N 62°48' W 074°00'1413.7 150 / 81013.8 2.8 0.7 0.9
2018-Jul-12 06:00N 62°48' W 074°30'1312.5 160 / 71013.6 8.2 4.5 0.6
2018-Jul-12 05:00N 62°42' W 074°54'1212.3 150 / 71013.6 3.9 1.5 1.2
2018-Jul-12 04:00N 62°30' W 075°00'1312.6 200 / 21013.4 4.6 2.5 2.7
2018-Jul-12 03:00N 62°24' W 075°24'7 6.6 140 / 31013.3 3.7 2.5 2.6
2018-Jul-12 02:00N 62°18' W 075°30'0 0.0 300 / 21013.2 3.6 2.3
2018-Jul-12 01:00N 62°18' W 075°30'6 6.0 280 / 51012.9 4.2 2.9 2.0
2018-Jul-12 00:00N 62°24' W 075°30'6 6.0 070 / 71013.0 4.7 3.3 1.3
2018-Jul-11 23:00N 62°18' W 075°30'0 0.0 020 / 51013.2 6.0 3.8
2018-Jul-11 22:00N 62°18' W 075°30'15 7.6 300 / 61013.3 4.3 3.1 1.2
2018-Jul-11 20:00N 62°24' W 076°00'1312.6 260 / 21013.6 4.6 2.8 0.8
2018-Jul-11 19:00N 62°30' W 076°24'1312.6 010 / 61013.2 3.1 2.1 2.0
2018-Jul-11 18:00N 62°36' W 076°48'8 8.3 290 / 51013.5 3.0 1.5 0.2
2018-Jul-11 17:00N 62°36' W 077°06'1010.2 290 / 61013.3 2.9 1.6 0.6
2018-Jul-11 16:00N 62°42' W 077°24'1413.8 080 / 21012.6 2.4 1.7 1.5
2018-Jul-11 15:00N 62°42' W 077°54'8 8.3 110 / 31012.5 1.9 1.8 1.4
2018-Jul-11 14:00N 62°42' W 078°12'1312.6 200 / 81012.2 1.2 1.1 1.3
2018-Jul-11 13:00N 62°36' W 078°36'1514.6 170 / 81012.0 0.9 0.6 1.0
2018-Jul-11 12:00N 62°24' W 078°54'1514.6 130 / 91011.5 0.4 0.2 0.9
2018-Jul-11 11:00N 62°12' W 079°12'7 6.6 190 / 71011.3 0.4 0.2-0.0
2018-Jul-11 10:00N 62°06' W 079°06'7 6.6 180 / 71011.1 0.8 0.5-0.3
2018-Jul-11 09:00N 62°00' W 079°12'7 6.6 150 / 61011.0 0.4 0.2-0.3
2018-Jul-11 08:00N 61°54' W 079°18'1212.3 160 / 81010.7 0.5 0.4-0.2
2018-Jul-11 07:00N 61°42' W 079°24'7 6.6 230 / 81010.4 1.1 0.9-0.2
2018-Jul-11 06:00N 61°36' W 079°30'7 6.6 210 / 91010.6 1.0 0.9 0.7
2018-Jul-11 05:00N 61°30' W 079°36'8 8.3 210 / 91010.7 1.7 1.0-0.6
2018-Jul-11 04:00N 61°24' W 079°48'6 6.0 210 / 101010.9 0.9 0.8-0.4
2018-Jul-11 03:00N 61°18' W 079°48'1212.0 210 / 91010.9 1.2 1.0-0.1
2018-Jul-11 02:00N 61°06' W 079°48'1212.0 220 / 111011.4 2.0 1.3-0.1
2018-Jul-11 01:00N 60°54' W 079°48'0 0.0 220 / 101012.0 2.5 1.6-0.1
2018-Jul-11 00:00N 60°54' W 079°48'7 6.7 250 / 101012.3 2.3 1.6 0.2
2018-Jul-10 23:00N 60°48' W 079°42'7 6.7 280 / 111012.4 2.8 2.0-0.0
2018-Jul-10 22:00N 60°42' W 079°36'7 6.7 290 / 41012.4 2.4 1.7 0.1
2018-Jul-10 21:00N 60°36' W 079°30'6 6.0 320 / 71012.2 2.1 1.6 0.1
2018-Jul-10 20:00N 60°30' W 079°30'7 6.7 330 / 91011.7 2.4 1.8 0.2
2018-Jul-10 19:00N 60°24' W 079°24'0 0.0 320 / 121011.5 2.2 1.6-0.5
2018-Jul-10 18:00N 60°24' W 079°24'7 6.7 330 / 121010.9 2.1 1.7-0.0
2018-Jul-10 17:00N 60°18' W 079°18'6 6.0 320 / 121010.2 1.8 1.5-0.0
2018-Jul-10 16:00N 60°12' W 079°18'6 6.0 310 / 141009.7 1.7 1.6 0.1
2018-Jul-10 15:00N 60°06' W 079°18'6 6.0 280 / 141011.7 0.4 0.3-0.1
2018-Jul-10 14:00N 60°00' W 079°18'6 6.0 290 / 141011.2 0.2 0.1-0.1
2018-Jul-10 13:00N 59°54' W 079°18'6 6.0 310 / 121010.4 0.3 0.2-0.0
2018-Jul-10 12:00N 59°48' W 079°18'6 6.0 340 / 121009.4 0.5 0.4-0.1
2018-Jul-10 11:00N 59°42' W 079°18'0 0.0 320 / 141008.8 1.1 1.0-0.2
2018-Jul-10 10:00N 59°42' W 079°18'7 6.7 310 / 121008.2 1.2 1.1-0.0
2018-Jul-10 09:00N 59°36' W 079°24'6 6.0 300 / 101007.1 0.5 0.4 0.1
2018-Jul-10 08:00N 59°30' W 079°24'6 6.0 280 / 121007.0 0.5 0.4-0.0
2018-Jul-10 07:00N 59°24' W 079°24'7 6.7 270 / 131007.0 0.6 0.5-0.2
2018-Jul-10 06:00N 59°18' W 079°18'6 6.0 260 / 131006.9 0.5 0.4-0.2
2018-Jul-10 05:00N 59°12' W 079°18'0 0.0 270 / 111006.8 0.5 0.4-0.2
2018-Jul-10 04:00N 59°12' W 079°18'0 0.0 280 / 91007.0 0.7 0.6-0.3
2018-Jul-10 03:00N 59°12' W 079°18'3 3.1 270 / 101006.6 0.8 0.7-0.3
2018-Jul-10 02:00N 59°12' W 079°12'0 0.0 270 / 111006.8 0.8 0.7-0.5
2018-Jul-10 01:00N 59°12' W 079°12'0 0.0 280 / 101006.7 1.6 1.0-0.4
2018-Jul-10 00:00N 59°12' W 079°12'0 0.0 260 / 91006.5 1.5 0.9-0.4
2018-Jul-09 23:00N 59°12' W 079°12'0 0.0 260 / 101005.5 1.5 0.7-0.2
2018-Jul-09 22:00N 59°12' W 079°12'7 6.7 240 / 81005.4 1.1 0.7 0.1
2018-Jul-09 21:00N 59°06' W 079°06'7 6.7 240 / 101005.3 0.7 0.5 0.3
2018-Jul-09 20:00N 59°00' W 079°12'6 6.0 250 / 81004.5 0.5 0.4 0.3
2018-Jul-09 19:00N 58°54' W 079°12'6 6.0 250 / 81003.9 -0.0-0.1 0.9
2018-Jul-09 18:00N 58°48' W 079°12'   260 / 51003.1 0.5 0.3 1.0

Dump ship's entire track history